Time;durP1;ratioP1;P1;durP2;ratioP2;P2;SDS_P1;SDS_P2;PMS_P1;PMS_P2;Temp;Humidity;BMP_temperature;BMP_pressure;BME280_temperature;BME280_humidity;BME280_pressure;Samples;Min_cycle;Max_cycle;Signal;HPM_P1;HPM_P2
2023/02/26 00:00:10;;;;;;;2.90;2.13;;;0.30;99.90;;;;;;5015797;28;20555;-64
2023/02/26 00:02:37;;;;;;;5.00;2.00;;;0.30;99.90;;;;;;5014765;28;20492;-64
2023/02/26 00:05:06;;;;;;;2.57;1.60;;;0.30;99.90;;;;;;5015911;28;20487;-64
2023/02/26 00:07:33;;;;;;;2.10;1.90;;;0.40;99.90;;;;;;5015570;28;20477;-64
2023/02/26 00:10:01;;;;;;;3.97;2.10;;;0.40;99.90;;;;;;5015451;28;20980;-64
2023/02/26 00:12:28;;;;;;;2.27;1.77;;;0.40;99.90;;;;;;5015353;28;20922;-63
2023/02/26 00:14:55;;;;;;;3.07;2.30;;;0.40;99.90;;;;;;5015681;28;20885;-66
2023/02/26 00:17:36;;;;;;;20.20;11.30;;;0.40;99.90;;;;;;5015534;28;20467;-65
2023/02/26 00:20:07;;;;;;;2.83;2.30;;;0.40;99.90;;;;;;5015531;28;20455;-64
2023/02/26 00:22:35;;;;;;;3.30;2.30;;;0.40;99.90;;;;;;5015647;28;20456;-64
2023/02/26 00:25:01;;;;;;;4.97;1.60;;;0.40;99.90;;;;;;5015611;28;20467;-64
2023/02/26 00:27:28;;;;;;;2.10;1.47;;;0.40;99.90;;;;;;5015166;28;20490;-64
2023/02/26 00:29:56;;;;;;;2.33;1.60;;;0.40;99.90;;;;;;5015200;28;20782;-64
2023/02/26 00:32:23;;;;;;;2.17;1.70;;;0.40;99.90;;;;;;5015029;28;20929;-64
2023/02/26 00:34:51;;;;;;;2.60;1.80;;;0.40;99.90;;;;;;5015255;28;20942;-64
2023/02/26 00:37:36;;;;;;;4.33;1.60;;;0.30;99.90;;;;;;5015075;28;20464;-64
2023/02/26 00:40:15;;;;;;;2.63;1.90;;;0.40;99.90;;;;;;5015321;28;20445;-63
2023/02/26 00:42:42;;;;;;;2.47;1.77;;;0.40;99.90;;;;;;5015206;28;20445;-64
2023/02/26 00:45:15;;;;;;;4.53;1.77;;;0.50;99.90;;;;;;5014651;28;20484;-64
2023/02/26 00:47:48;;;;;;;3.40;2.20;;;0.50;99.90;;;;;;5015390;28;20484;-64
2023/02/26 00:50:18;;;;;;;3.57;1.67;;;0.40;99.90;;;;;;5015166;28;20480;-64
2023/02/26 00:52:59;;;;;;;2.50;1.90;;;0.40;99.90;;;;;;5014510;28;20471;-64
2023/02/26 00:55:26;;;;;;;2.00;1.43;;;0.50;99.90;;;;;;5015215;28;20532;-64
2023/02/26 00:57:53;;;;;;;4.93;1.50;;;0.50;99.90;;;;;;5015630;28;20483;-65
2023/02/26 01:00:21;;;;;;;2.53;1.60;;;0.50;99.90;;;;;;5015352;28;20476;-64
2023/02/26 01:02:49;;;;;;;2.50;1.53;;;0.50;99.90;;;;;;5015003;28;20467;-65
2023/02/26 01:05:17;;;;;;;3.00;1.70;;;0.40;99.90;;;;;;5014767;28;20457;-64
2023/02/26 01:07:53;;;;;;;3.93;1.83;;;0.40;99.90;;;;;;5014745;28;20492;-63
2023/02/26 01:10:20;;;;;;;6.77;1.60;;;0.50;99.90;;;;;;5015100;28;20821;-64
2023/02/26 01:12:48;;;;;;;4.90;1.90;;;0.60;99.90;;;;;;5016584;28;20466;-64
2023/02/26 01:15:15;;;;;;;2.47;1.70;;;0.60;99.90;;;;;;5018960;28;20460;-63
2023/02/26 01:17:49;;;;;;;3.60;1.40;;;0.60;99.90;;;;;;5018732;28;20452;-65
2023/02/26 01:20:18;;;;;;;2.27;1.30;;;0.60;99.90;;;;;;5019013;28;20851;-64
2023/02/26 01:22:52;;;;;;;9.37;1.90;;;0.60;99.90;;;;;;5018629;28;20457;-64
2023/02/26 01:25:25;;;;;;;3.43;1.47;;;0.60;99.90;;;;;;5018810;28;20898;-64
2023/02/26 01:27:52;;;;;;;1.60;1.40;;;0.50;99.90;;;;;;5018857;28;20949;-64
2023/02/26 01:30:20;;;;;;;2.67;1.30;;;0.50;99.90;;;;;;5019034;28;20532;-64
2023/02/26 01:32:54;;;;;;;2.43;1.90;;;0.60;99.90;;;;;;5018719;28;20456;-64
2023/02/26 01:35:37;;;;;;;3.30;1.90;;;0.60;99.90;;;;;;5018407;28;20455;-64
2023/02/26 01:38:15;;;;;;;1.80;1.40;;;0.60;99.90;;;;;;5018653;28;20769;-64
2023/02/26 01:41:02;;;;;;;2.63;1.77;;;0.60;99.90;;;;;;5019113;28;20445;-64
2023/02/26 01:43:37;;;;;;;5.20;1.73;;;0.60;99.90;;;;;;5019098;28;20772;-64
2023/02/26 01:46:09;;;;;;;2.53;1.60;;;0.70;99.90;;;;;;5017868;28;20484;-63
2023/02/26 01:48:41;;;;;;;1.83;1.33;;;0.70;99.90;;;;;;5018230;28;20472;-64
2023/02/26 01:51:09;;;;;;;1.47;1.30;;;0.70;99.90;;;;;;5018494;28;20455;-64
2023/02/26 01:53:38;;;;;;;3.90;1.30;;;0.60;99.90;;;;;;5018059;28;20453;-64
2023/02/26 01:56:12;;;;;;;6.53;1.67;;;0.70;99.90;;;;;;5018136;28;20456;-65
2023/02/26 01:58:40;;;;;;;4.80;1.80;;;0.70;99.90;;;;;;5017953;28;20519;-64
2023/02/26 02:01:07;;;;;;;1.77;1.43;;;0.60;99.90;;;;;;5018075;28;20457;-65
2023/02/26 02:03:38;;;;;;;2.80;1.40;;;0.60;99.90;;;;;;5017957;28;20505;-64
2023/02/26 02:06:08;;;;;;;2.73;1.70;;;0.60;99.90;;;;;;5018124;28;20456;-65
2023/02/26 02:08:36;;;;;;;3.17;1.67;;;0.60;99.90;;;;;;5017950;28;20498;-65
2023/02/26 02:11:06;;;;;;;4.20;1.50;;;0.60;99.90;;;;;;5018376;28;20795;-65
2023/02/26 02:13:44;;;;;;;2.90;1.43;;;0.60;99.90;;;;;;5018619;28;20445;-65
2023/02/26 02:16:20;;;;;;;2.07;1.20;;;0.60;99.90;;;;;;5018860;28;20440;-64
2023/02/26 02:18:53;;;;;;;5.47;1.57;;;0.60;99.90;;;;;;5018120;28;20520;-64
2023/02/26 02:21:51;;;;;;;2.80;1.77;;;0.70;99.90;;;;;;5017803;28;20445;-65
2023/02/26 02:24:27;;;;;;;3.17;1.90;;;0.70;99.90;;;;;;5013042;28;20465;-64
2023/02/26 02:27:02;;;;;;;3.60;2.10;;;0.60;99.90;;;;;;5017755;28;20532;-65
2023/02/26 02:29:54;;;;;;;4.43;1.63;;;0.60;99.90;;;;;;5017379;28;20469;-64
2023/02/26 02:32:28;;;;;;;2.47;1.50;;;0.60;99.90;;;;;;5017821;28;20762;-64
2023/02/26 02:35:03;;;;;;;7.10;2.03;;;0.60;99.90;;;;;;5018098;28;20446;-63
2023/02/26 02:37:36;;;;;;;3.43;1.43;;;0.60;99.90;;;;;;5017418;28;20451;-64
2023/02/26 02:40:07;;;;;;;3.70;1.90;;;0.60;99.90;;;;;;5017529;28;20455;-64
2023/02/26 02:42:36;;;;;;;3.33;1.47;;;0.70;99.90;;;;;;5017134;28;20461;-63
2023/02/26 02:45:09;;;;;;;3.77;1.40;;;0.70;99.90;;;;;;5017340;28;20583;-64
2023/02/26 02:47:42;;;;;;;4.03;1.80;;;0.70;99.90;;;;;;5017012;28;20441;-64
2023/02/26 02:50:14;;;;;;;3.93;1.60;;;0.60;99.90;;;;;;5016949;28;20485;-65
2023/02/26 02:52:45;;;;;;;1.40;1.10;;;0.70;99.90;;;;;;5017021;28;20455;-64
2023/02/26 02:55:17;;;;;;;3.43;1.23;;;0.70;99.90;;;;;;5017024;28;20455;-63
2023/02/26 02:57:49;;;;;;;2.20;1.47;;;0.70;99.90;;;;;;5017224;28;20449;-64
2023/02/26 03:00:19;;;;;;;1.80;1.30;;;0.70;99.90;;;;;;5016747;28;20438;-65
2023/02/26 03:02:53;;;;;;;3.83;1.63;;;0.70;99.90;;;;;;5017140;28;20440;-64
2023/02/26 03:05:20;;;;;;;5.03;1.63;;;0.70;99.90;;;;;;5016610;28;20441;-64
2023/02/26 03:07:50;;;;;;;2.47;1.30;;;0.60;99.90;;;;;;5016653;28;20467;-63
2023/02/26 03:10:18;;;;;;;2.77;1.37;;;0.70;99.90;;;;;;5016805;28;20771;-64
2023/02/26 03:12:45;;;;;;;4.57;1.40;;;0.70;99.90;;;;;;5016500;28;20474;-64
2023/02/26 03:15:13;;;;;;;2.00;1.27;;;0.60;99.90;;;;;;5016778;28;20936;-65
2023/02/26 03:17:51;;;;;;;2.40;1.23;;;0.60;99.90;;;;;;5016485;28;20496;-64
2023/02/26 03:20:25;;;;;;;3.20;1.67;;;0.60;99.90;;;;;;5016692;28;20445;-64
2023/02/26 03:23:01;;;;;;;2.07;1.30;;;0.50;99.90;;;;;;5016631;28;20448;-64
2023/02/26 03:25:35;;;;;;;11.17;1.30;;;0.60;99.90;;;;;;5016657;28;20847;-64
2023/02/26 03:28:10;;;;;;;2.27;1.33;;;0.50;99.90;;;;;;5016466;28;20469;-64
2023/02/26 03:30:41;;;;;;;1.93;1.20;;;0.50;99.90;;;;;;5016580;28;20455;-65
2023/02/26 03:33:14;;;;;;;3.50;1.40;;;0.60;99.90;;;;;;5016361;28;20467;-65
2023/02/26 03:35:49;;;;;;;4.90;1.70;;;0.60;99.90;;;;;;5016295;28;20445;-64
2023/02/26 03:38:28;;;;;;;8.67;1.30;;;0.60;99.90;;;;;;5015964;28;20447;-65
2023/02/26 03:41:03;;;;;;;1.90;1.40;;;0.50;99.90;;;;;;5016224;28;20445;-64
2023/02/26 03:43:34;;;;;;;1.80;1.20;;;0.50;99.90;;;;;;5016251;28;20441;-64
2023/02/26 03:46:04;;;;;;;4.27;1.90;;;0.50;99.90;;;;;;5015721;28;20499;-64
2023/02/26 03:48:36;;;;;;;2.57;1.30;;;0.60;99.90;;;;;;5016087;28;20492;-65
2023/02/26 03:51:07;;;;;;;2.77;1.20;;;0.60;99.90;;;;;;5016242;28;20793;-64
2023/02/26 03:53:39;;;;;;;3.10;1.40;;;0.60;99.90;;;;;;5015996;28;20449;-69
2023/02/26 03:56:12;;;;;;;3.60;1.23;;;0.60;99.90;;;;;;5016623;28;20761;-69
2023/02/26 03:58:39;;;;;;;2.07;1.50;;;0.60;99.90;;;;;;5015943;28;20445;-69
2023/02/26 04:01:09;;;;;;;2.37;1.53;;;0.60;99.90;;;;;;5015661;28;20460;-70
2023/02/26 04:03:44;;;;;;;1.70;1.30;;;0.60;99.90;;;;;;5015592;28;20446;-69
2023/02/26 04:06:12;;;;;;;2.63;1.70;;;0.60;99.90;;;;;;5015732;28;20445;-69
2023/02/26 04:08:40;;;;;;;4.03;1.70;;;0.60;99.90;;;;;;5016324;28;20499;-70
2023/02/26 04:11:09;;;;;;;3.60;1.40;;;0.60;99.90;;;;;;5015366;28;20457;-69
2023/02/26 04:13:36;;;;;;;3.33;1.27;;;0.60;99.90;;;;;;5015371;28;20467;-69
2023/02/26 04:16:03;;;;;;;6.60;3.50;;;0.60;99.90;;;;;;5015459;28;20457;-68
2023/02/26 04:18:31;;;;;;;8.10;3.03;;;0.60;99.90;;;;;;5015443;28;20544;-69
2023/02/26 04:20:59;;;;;;;2.33;1.43;;;0.70;99.90;;;;;;5015973;28;20805;-70
2023/02/26 04:23:26;;;;;;;5.30;2.17;;;0.70;99.90;;;;;;5014890;28;20969;-70
2023/02/26 04:25:53;;;;;;;3.33;1.50;;;0.70;99.90;;;;;;5015496;28;20458;-70
2023/02/26 04:28:19;;;;;;;3.00;1.27;;;0.70;99.90;;;;;;5014985;28;20479;-69
2023/02/26 04:30:46;;;;;;;1.60;1.50;;;0.70;99.90;;;;;;5015144;28;20531;-70
2023/02/26 04:33:14;;;;;;;3.37;1.30;;;0.70;99.90;;;;;;5015074;28;20465;-69
2023/02/26 04:35:41;;;;;;;4.60;1.37;;;0.80;99.90;;;;;;5015168;28;20511;-68
2023/02/26 04:38:09;;;;;;;3.60;1.43;;;0.70;99.90;;;;;;5014968;28;20551;-70
2023/02/26 04:40:36;;;;;;;3.00;1.33;;;0.70;99.90;;;;;;5015142;28;20847;-69
2023/02/26 04:43:03;;;;;;;2.13;1.27;;;0.70;99.90;;;;;;5014811;28;20457;-69
2023/02/26 04:45:30;;;;;;;3.27;1.50;;;0.80;99.90;;;;;;5014578;28;20799;-68
2023/02/26 04:47:57;;;;;;;4.07;1.30;;;0.70;99.90;;;;;;5014878;28;20467;-69
2023/02/26 04:50:24;;;;;;;4.43;1.40;;;0.70;99.90;;;;;;5015033;28;20477;-69
2023/02/26 04:52:50;;;;;;;2.27;1.20;;;0.70;99.90;;;;;;5015066;28;20539;-69
2023/02/26 04:55:19;;;;;;;3.87;1.57;;;0.70;99.90;;;;;;5014935;28;20467;-69
2023/02/26 04:57:45;;;;;;;1.87;1.20;;;0.70;99.90;;;;;;5014811;28;20536;-70
2023/02/26 05:00:15;;;;;;;2.83;1.60;;;0.80;99.90;;;;;;5014566;28;20515;-69
2023/02/26 05:02:42;;;;;;;1.50;1.23;;;0.80;99.90;;;;;;5014852;28;20842;-69
2023/02/26 05:05:09;;;;;;;3.17;1.50;;;0.90;99.90;;;;;;5016045;28;20774;-69
2023/02/26 05:07:37;;;;;;;1.97;1.43;;;0.90;99.90;;;;;;5034554;28;20467;-68
2023/02/26 05:10:04;;;;;;;2.33;1.27;;;0.90;99.90;;;;;;5034517;28;20567;-69
2023/02/26 05:12:33;;;;;;;2.70;1.40;;;0.80;99.90;;;;;;5034770;28;20456;-69
2023/02/26 05:15:00;;;;;;;5.73;1.67;;;0.80;99.90;;;;;;5034226;28;20460;-69
2023/02/26 05:17:27;;;;;;;3.37;1.50;;;0.90;99.90;;;;;;5034296;28;20462;-70
2023/02/26 05:19:54;;;;;;;3.00;1.60;;;0.80;99.90;;;;;;5034393;28;20456;-69
2023/02/26 05:22:20;;;;;;;5.67;1.40;;;0.80;99.90;;;;;;5034513;28;20466;-69
2023/02/26 05:24:48;;;;;;;2.93;1.13;;;0.90;99.90;;;;;;5034353;28;20478;-69
2023/02/26 05:27:15;;;;;;;3.93;1.27;;;0.90;99.90;;;;;;5015344;28;20465;-70
2023/02/26 05:29:43;;;;;;;2.50;1.40;;;0.80;99.90;;;;;;5014587;28;20480;-70
2023/02/26 05:32:11;;;;;;;3.10;1.90;;;0.80;99.90;;;;;;5014677;28;20467;-69
2023/02/26 05:34:38;;;;;;;3.47;1.30;;;0.80;99.90;;;;;;5014572;28;20457;-69
2023/02/26 05:37:05;;;;;;;3.93;1.93;;;0.80;99.90;;;;;;5014545;28;20457;-68
2023/02/26 05:39:31;;;;;;;1.60;1.27;;;0.80;99.90;;;;;;5014446;28;20929;-69
2023/02/26 05:41:59;;;;;;;2.67;1.30;;;0.70;99.90;;;;;;5014336;28;20456;-70
2023/02/26 05:44:26;;;;;;;3.10;1.60;;;0.80;99.90;;;;;;5014068;28;20465;-68
2023/02/26 05:46:54;;;;;;;1.40;1.10;;;0.70;99.90;;;;;;5014331;28;20908;-69
2023/02/26 05:49:21;;;;;;;2.37;1.30;;;0.70;99.90;;;;;;5014370;28;20485;-69
2023/02/26 05:51:48;;;;;;;2.33;1.30;;;0.70;99.90;;;;;;5014454;28;20559;-70
2023/02/26 05:54:15;;;;;;;2.90;1.30;;;0.70;99.90;;;;;;5014429;28;20488;-70
2023/02/26 05:56:42;;;;;;;1.50;1.23;;;0.80;99.90;;;;;;5014370;28;20548;-69
2023/02/26 05:59:08;;;;;;;2.70;1.30;;;0.80;99.90;;;;;;5016312;28;20793;-70
2023/02/26 06:01:37;;;;;;;1.87;1.27;;;0.80;99.90;;;;;;5018128;28;20478;-69
2023/02/26 06:04:06;;;;;;;1.30;1.10;;;0.80;99.90;;;;;;5018128;28;20461;-69
2023/02/26 06:06:32;;;;;;;2.17;1.10;;;0.90;99.90;;;;;;5017642;28;20760;-70
2023/02/26 06:09:00;;;;;;;3.60;1.57;;;0.90;99.90;;;;;;5017490;28;20477;-69
2023/02/26 06:11:27;;;;;;;2.60;1.53;;;0.90;99.90;;;;;;5017761;28;20488;-69
2023/02/26 06:13:53;;;;;;;2.37;1.27;;;0.90;99.90;;;;;;5017813;28;20456;-69
2023/02/26 06:16:21;;;;;;;1.50;1.23;;;0.80;99.90;;;;;;5017850;28;20909;-70
2023/02/26 06:18:48;;;;;;;2.53;1.60;;;0.80;99.90;;;;;;5017470;28;20457;-69
2023/02/26 06:21:16;;;;;;;2.80;1.87;;;0.90;99.90;;;;;;5017617;28;20953;-70
2023/02/26 06:23:43;;;;;;;4.13;3.40;;;0.80;99.90;;;;;;5017496;28;20456;-69
2023/02/26 06:26:10;;;;;;;7.10;3.17;;;0.80;99.90;;;;;;5017779;28;20460;-69
2023/02/26 06:28:37;;;;;;;7.23;3.30;;;0.90;99.90;;;;;;5017286;28;20457;-69
2023/02/26 06:31:04;;;;;;;3.17;2.00;;;0.90;99.90;;;;;;5017202;28;20933;-69
2023/02/26 06:33:31;;;;;;;3.07;1.77;;;0.90;99.90;;;;;;5017504;28;20453;-70
2023/02/26 06:35:59;;;;;;;2.43;1.63;;;0.90;99.90;;;;;;5017057;28;20467;-68
2023/02/26 06:38:27;;;;;;;3.13;1.70;;;0.90;99.90;;;;;;5017314;28;20471;-70
2023/02/26 06:40:54;;;;;;;2.27;1.33;;;0.90;99.90;;;;;;5017437;28;20553;-69
2023/02/26 06:43:21;;;;;;;2.03;1.40;;;1.00;99.90;;;;;;5017268;28;20457;-69
2023/02/26 06:45:48;;;;;;;7.17;2.23;;;1.00;99.90;;;;;;5017059;28;20485;-69
2023/02/26 06:48:15;;;;;;;3.57;1.50;;;1.10;99.90;;;;;;5017783;28;20751;-69
2023/02/26 06:50:42;;;;;;;2.77;1.60;;;1.10;99.90;;;;;;5017154;28;20491;-69
2023/02/26 06:53:09;;;;;;;2.80;2.27;;;1.20;99.90;;;;;;5017320;28;20456;-68
2023/02/26 06:55:42;;;;;;;2.57;2.03;;;1.20;99.90;;;;;;5017414;28;20799;-70
2023/02/26 06:58:08;;;;;;;4.10;1.57;;;1.20;99.90;;;;;;5016992;28;20441;-69
2023/02/26 07:00:36;;;;;;;1.50;1.37;;;1.10;99.90;;;;;;5016897;28;20524;-69
2023/02/26 07:03:04;;;;;;;2.73;1.67;;;1.20;99.90;;;;;;5016792;28;20465;-69
2023/02/26 07:05:30;;;;;;;2.70;1.50;;;1.20;99.90;;;;;;5017312;28;20457;-70
2023/02/26 07:07:57;;;;;;;3.37;1.40;;;1.30;99.90;;;;;;5016991;28;20555;-69
2023/02/26 07:10:24;;;;;;;2.23;1.40;;;1.20;99.90;;;;;;5015925;28;20484;-69
2023/02/26 07:12:53;;;;;;;6.30;1.80;;;1.20;99.90;;;;;;5016793;28;20940;-70
2023/02/26 07:15:19;;;;;;;3.73;1.60;;;1.20;99.90;;;;;;5016787;28;20467;-69
2023/02/26 07:17:46;;;;;;;4.37;1.77;;;1.10;99.90;;;;;;5016841;28;20465;-70
2023/02/26 07:20:13;;;;;;;2.03;1.40;;;1.00;99.90;;;;;;5016887;28;20556;-69
2023/02/26 07:22:40;;;;;;;2.80;1.40;;;1.00;99.90;;;;;;5016680;28;20933;-69
2023/02/26 07:25:08;;;;;;;2.07;1.30;;;1.00;99.90;;;;;;5016262;28;20457;-70
2023/02/26 07:27:35;;;;;;;3.00;1.53;;;1.00;99.90;;;;;;5017018;28;20759;-70
2023/02/26 07:30:05;;;;;;;7.73;2.40;;;1.00;99.90;;;;;;5016202;28;20480;-71
2023/02/26 07:32:32;;;;;;;2.17;1.77;;;1.00;99.90;;;;;;5016141;28;20893;-70
2023/02/26 07:34:58;;;;;;;2.87;1.60;;;0.90;99.90;;;;;;5016229;28;20456;-69
2023/02/26 07:37:26;;;;;;;4.73;1.63;;;0.90;99.90;;;;;;5016476;28;20457;-70
2023/02/26 07:39:53;;;;;;;2.67;1.63;;;0.90;99.90;;;;;;5016256;28;20551;-69
2023/02/26 07:42:20;;;;;;;1.70;1.50;;;0.90;99.90;;;;;;5015871;28;20941;-69
2023/02/26 07:44:47;;;;;;;3.47;1.70;;;0.90;99.90;;;;;;5015830;28;20480;-70
2023/02/26 07:47:15;;;;;;;1.80;1.40;;;0.90;99.90;;;;;;5016124;28;20445;-69
2023/02/26 07:49:42;;;;;;;1.83;1.60;;;0.90;99.90;;;;;;5016035;28;20571;-70
2023/02/26 07:52:09;;;;;;;3.30;1.60;;;1.00;99.90;;;;;;5015724;28;20552;-69
2023/02/26 07:54:36;;;;;;;6.30;1.63;;;1.00;99.90;;;;;;5015853;28;20563;-70
2023/02/26 07:57:04;;;;;;;6.03;1.50;;;1.00;99.90;;;;;;5016022;28;20457;-70
2023/02/26 07:59:31;;;;;;;1.93;1.67;;;1.00;99.90;;;;;;5015966;28;20873;-69
2023/02/26 08:01:57;;;;;;;1.67;1.50;;;1.00;99.90;;;;;;5015921;28;20797;-69
2023/02/26 08:04:26;;;;;;;4.03;1.50;;;1.00;99.90;;;;;;5015541;28;20552;-69
2023/02/26 08:06:53;;;;;;;1.90;1.40;;;1.00;99.90;;;;;;5015984;28;20476;-69
2023/02/26 08:09:21;;;;;;;3.50;1.60;;;1.10;99.90;;;;;;5015782;28;20560;-69
2023/02/26 08:11:48;;;;;;;2.47;1.80;;;1.10;99.90;;;;;;5015463;28;20472;-69
2023/02/26 08:14:15;;;;;;;6.53;2.17;;;1.10;99.90;;;;;;5015437;28;20492;-68
2023/02/26 08:16:41;;;;;;;2.63;2.23;;;1.20;99.90;;;;;;5015455;28;20485;-69
2023/02/26 08:19:09;;;;;;;1.97;1.50;;;1.10;99.90;;;;;;5015438;28;20471;-69
2023/02/26 08:21:37;;;;;;;1.77;1.37;;;1.10;99.90;;;;;;5014906;28;20467;-69
2023/02/26 08:24:04;;;;;;;2.10;1.33;;;1.10;99.90;;;;;;5015397;28;21024;-69
2023/02/26 08:26:31;;;;;;;1.97;1.20;;;1.20;99.90;;;;;;5015442;28;20452;-69
2023/02/26 08:28:57;;;;;;;8.90;6.20;;;1.20;99.90;;;;;;5015339;28;20461;-70
2023/02/26 08:31:26;;;;;;;4.87;3.30;;;1.20;99.90;;;;;;5014902;28;20499;-69
2023/02/26 08:33:53;;;;;;;2.57;1.40;;;1.20;99.90;;;;;;5015105;28;20468;-69
2023/02/26 08:36:21;;;;;;;1.80;1.40;;;1.20;99.90;;;;;;5015225;28;20457;-69
2023/02/26 08:38:49;;;;;;;3.90;1.33;;;1.20;99.90;;;;;;5015292;28;20464;-69
2023/02/26 08:41:16;;;;;;;4.30;1.57;;;1.30;99.90;;;;;;5015516;28;20449;-68
2023/02/26 08:43:43;;;;;;;7.40;1.67;;;1.30;99.90;;;;;;5033586;28;20460;-69
2023/02/26 08:46:10;;;;;;;2.07;1.70;;;1.40;99.90;;;;;;5034467;28;20484;-69
2023/02/26 08:48:37;;;;;;;2.00;1.40;;;1.40;99.90;;;;;;5034853;28;20612;-69
2023/02/26 08:51:04;;;;;;;2.47;1.40;;;1.50;99.90;;;;;;5034705;28;20495;-71
2023/02/26 08:53:31;;;;;;;2.53;1.47;;;1.50;99.90;;;;;;5033491;28;20562;-69
2023/02/26 08:55:59;;;;;;;5.87;2.10;;;1.50;99.90;;;;;;5034918;28;20470;-70
2023/02/26 08:58:26;;;;;;;3.20;1.23;;;1.50;99.90;;;;;;5034696;28;20554;-70
2023/02/26 09:00:53;;;;;;;3.03;1.10;;;1.50;99.90;;;;;;5034870;28;20456;-69
2023/02/26 09:03:20;;;;;;;4.80;1.40;;;1.50;99.90;;;;;;5034119;28;20731;-69
2023/02/26 09:05:47;;;;;;;3.60;1.83;;;1.60;99.90;;;;;;5034545;28;21019;-70
2023/02/26 09:08:14;;;;;;;1.40;1.07;;;1.60;99.90;;;;;;5034666;28;20929;-70
2023/02/26 09:10:42;;;;;;;10.60;6.30;;;1.60;99.90;;;;;;5034326;28;20480;-69
2023/02/26 09:13:10;;;;;;;5.23;2.77;;;1.70;99.90;;;;;;5034385;28;20543;-70
2023/02/26 09:15:37;;;;;;;3.30;1.70;;;1.70;99.90;;;;;;5034132;28;20634;-69
2023/02/26 09:18:04;;;;;;;2.47;1.57;;;1.80;99.90;;;;;;5034456;28;20485;-68
2023/02/26 09:20:31;;;;;;;1.67;1.30;;;1.90;99.90;;;;;;5034641;28;20923;-69
2023/02/26 09:22:58;;;;;;;4.10;1.80;;;1.80;99.90;;;;;;5034328;28;20542;-69
2023/02/26 09:25:25;;;;;;;1.90;1.50;;;1.80;99.90;;;;;;5034949;28;20470;-70
2023/02/26 09:27:52;;;;;;;1.80;1.40;;;1.80;99.90;;;;;;5035297;28;20547;-70
2023/02/26 09:30:20;;;;;;;2.67;1.30;;;1.80;99.90;;;;;;5034366;28;20575;-70
2023/02/26 09:32:47;;;;;;;4.43;2.50;;;1.80;99.90;;;;;;5034637;28;20864;-69
2023/02/26 09:35:14;;;;;;;6.30;2.57;;;1.90;99.90;;;;;;5038957;28;20460;-69
2023/02/26 09:37:41;;;;;;;3.43;1.67;;;2.00;99.90;;;;;;5038913;28;20527;-69
2023/02/26 09:40:13;;;;;;;9.70;4.87;;;2.00;99.90;;;;;;5037942;28;20452;-69
2023/02/26 09:42:54;;;;;;;10.63;5.30;;;2.00;99.90;;;;;;5038612;28;20440;-69
2023/02/26 09:45:29;;;;;;;3.43;2.20;;;2.00;99.90;;;;;;5038038;28;20578;-70
2023/02/26 09:47:58;;;;;;;2.57;1.63;;;2.10;99.90;;;;;;5038050;28;20502;-69
2023/02/26 09:50:32;;;;;;;3.33;1.47;;;2.20;99.90;;;;;;5038067;28;20510;-69
2023/02/26 09:53:05;;;;;;;2.50;1.70;;;2.20;99.90;;;;;;5038016;28;20527;-68
2023/02/26 09:55:37;;;;;;;2.40;1.30;;;2.20;99.90;;;;;;5038295;28;20780;-69
2023/02/26 09:58:11;;;;;;;2.23;1.23;;;2.30;99.90;;;;;;5038053;28;20907;-68
2023/02/26 10:00:47;;;;;;;3.90;2.27;;;2.30;99.90;;;;;;5038195;28;20746;-70
2023/02/26 10:03:26;;;;;;;3.60;2.60;;;2.30;99.90;;;;;;5037990;28;20530;-69
2023/02/26 10:06:18;;;;;;;4.60;2.30;;;2.30;99.90;;;;;;5037709;28;20452;-70
2023/02/26 10:08:57;;;;;;;4.60;1.50;;;2.30;99.90;;;;;;5037993;28;20444;-70
2023/02/26 10:11:31;;;;;;;3.83;1.70;;;2.30;99.90;;;;;;5037448;28;20468;-69
2023/02/26 10:14:03;;;;;;;2.33;1.77;;;2.30;99.90;;;;;;5037830;28;20439;-69
2023/02/26 10:16:39;;;;;;;5.63;3.17;;;2.30;99.90;;;;;;5037888;28;20490;-69
2023/02/26 10:19:08;;;;;;;3.83;2.10;;;2.50;99.90;;;;;;5029834;28;20467;-69
2023/02/26 10:21:40;;;;;;;3.57;1.60;;;2.70;99.90;;;;;;5017981;28;20541;-68
2023/02/26 10:24:14;;;;;;;3.67;2.17;;;2.90;99.90;;;;;;5017485;28;20874;-69
2023/02/26 10:26:45;;;;;;;3.20;1.60;;;3.00;99.90;;;;;;5017733;28;20456;-69
2023/02/26 10:29:20;;;;;;;3.67;1.90;;;3.00;99.90;;;;;;5017765;28;20444;-69
2023/02/26 10:32:02;;;;;;;3.73;1.80;;;3.00;99.90;;;;;;5017815;28;20482;-69
2023/02/26 10:34:35;;;;;;;4.20;1.77;;;3.00;99.90;;;;;;5017441;28;20445;-69
2023/02/26 10:37:13;;;;;;;3.50;1.80;;;2.90;99.90;;;;;;5017749;28;20778;-72
2023/02/26 10:39:47;;;;;;;1.50;1.20;;;3.00;99.90;;;;;;5017524;28;20445;-69
2023/02/26 10:42:18;;;;;;;4.47;1.70;;;3.00;99.90;;;;;;5017628;28;20882;-70
2023/02/26 10:44:54;;;;;;;2.70;1.10;;;3.00;99.90;;;;;;5015840;28;20527;-70
2023/02/26 10:47:31;;;;;;;1.90;1.30;;;3.00;99.90;;;;;;5017410;28;20445;-70
2023/02/26 10:50:03;;;;;;;2.67;1.87;;;3.00;99.90;;;;;;5017567;28;20503;-70
2023/02/26 10:52:33;;;;;;;2.80;1.53;;;3.10;99.90;;;;;;5017511;28;20445;-69
2023/02/26 10:55:30;;;;;;;4.10;1.07;;;3.20;99.90;;;;;;5017902;28;20472;-69
2023/02/26 10:58:04;;;;;;;2.80;1.00;;;3.20;99.90;;;;;;5017310;28;20437;-70
2023/02/26 11:00:31;;;;;;;1.20;1.00;;;3.40;99.90;;;;;;5017036;28;20437;-69
2023/02/26 11:03:00;;;;;;;3.10;1.00;;;3.50;99.90;;;;;;5016666;28;20489;-71
2023/02/26 11:05:30;;;;;;;3.83;1.30;;;3.40;99.90;;;;;;5016855;28;20453;-68
2023/02/26 11:08:01;;;;;;;3.20;1.50;;;3.40;99.90;;;;;;5016747;28;20456;-69
2023/02/26 11:10:38;;;;;;;1.63;1.00;;;3.40;99.90;;;;;;5016469;28;20491;-70
2023/02/26 11:13:05;;;;;;;1.83;1.20;;;3.30;99.90;;;;;;5017186;28;20523;-70
2023/02/26 11:15:32;;;;;;;3.00;1.23;;;3.30;99.90;;;;;;5016844;28;20468;-70
2023/02/26 11:18:01;;;;;;;4.77;1.37;;;3.40;99.90;;;;;;5016910;28;20548;-69
2023/02/26 11:20:34;;;;;;;1.50;1.00;;;3.60;99.90;;;;;;5016847;28;20463;-69
2023/02/26 11:23:03;;;;;;;1.83;1.23;;;3.80;99.90;;;;;;5016344;28;20899;-70
2023/02/26 11:25:33;;;;;;;2.47;1.40;;;3.90;99.90;;;;;;5016503;28;20461;-69
2023/02/26 11:28:04;;;;;;;2.37;1.40;;;3.90;99.90;;;;;;5016103;28;20996;-68
2023/02/26 11:30:36;;;;;;;2.30;1.40;;;3.80;99.90;;;;;;5016555;28;20557;-69
2023/02/26 11:33:16;;;;;;;3.97;1.67;;;3.80;99.90;;;;;;5016263;28;20455;-69
2023/02/26 11:35:43;;;;;;;2.33;1.13;;;3.80;99.90;;;;;;5016740;28;20452;-70
2023/02/26 11:38:18;;;;;;;3.67;1.20;;;3.60;99.90;;;;;;5016316;28;20467;-69
2023/02/26 11:40:48;;;;;;;1.80;1.30;;;3.50;99.90;;;;;;5016259;28;20457;-70
2023/02/26 11:43:18;;;;;;;3.43;1.53;;;3.40;99.90;;;;;;5015853;28;20461;-70
2023/02/26 11:45:47;;;;;;;2.37;1.40;;;3.40;99.90;;;;;;5015852;28;20481;-69
2023/02/26 11:48:22;;;;;;;5.23;1.50;;;3.40;99.90;;;;;;5016201;28;20457;-70
2023/02/26 11:50:52;;;;;;;2.27;1.43;;;3.50;99.90;;;;;;5015664;28;20523;-69
2023/02/26 11:53:24;;;;;;;2.20;1.10;;;3.80;99.90;;;;;;5016284;28;20445;-70
2023/02/26 11:55:53;;;;;;;4.23;1.30;;;4.00;99.90;;;;;;5015651;28;20445;-70
2023/02/26 11:58:23;;;;;;;1.83;1.23;;;4.00;99.90;;;;;;5016006;28;20556;-70
2023/02/26 12:00:52;;;;;;;3.63;1.30;;;4.10;99.90;;;;;;5015631;28;20463;-70
2023/02/26 12:03:26;;;;;;;8.00;3.50;;;4.20;99.90;;;;;;5015724;28;20472;-70
2023/02/26 12:05:53;;;;;;;2.50;1.00;;;4.20;99.90;;;;;;5016312;28;20541;-69
2023/02/26 12:08:25;;;;;;;2.50;1.40;;;4.60;99.90;;;;;;5015735;28;20984;-69
2023/02/26 12:11:06;;;;;;;1.30;0.90;;;6.10;99.90;;;;;;5015541;28;20473;-69
2023/02/26 12:13:41;;;;;;;2.53;1.00;;;6.90;94.60;;;;;;5015755;28;20484;-69
2023/02/26 12:16:16;;;;;;;2.50;1.83;;;6.60;93.10;;;;;;5016431;28;20810;-69
2023/02/26 12:19:00;;;;;;;2.60;1.40;;;7.10;95.20;;;;;;5015300;28;20445;-69
2023/02/26 12:21:54;;;;;;;2.30;0.90;;;8.50;88.70;;;;;;5015766;28;20845;-71
2023/02/26 12:25:03;;;;;;;3.50;1.00;;;9.70;73.30;;;;;;5015609;28;20452;-69
2023/02/26 12:27:40;;;;;;;2.67;1.47;;;10.70;55.40;;;;;;5014787;28;20510;-69
2023/02/26 12:30:21;;;;;;;2.73;1.50;;;9.30;49.70;;;;;;5015846;28;20441;-70
2023/02/26 12:33:05;;;;;;;2.27;1.50;;;8.00;54.00;;;;;;5014994;28;20563;-69
2023/02/26 12:35:47;;;;;;;2.63;1.50;;;6.60;56.10;;;;;;5015002;28;20528;-70
2023/02/26 12:38:24;;;;;;;2.13;1.50;;;5.70;64.00;;;;;;5015236;28;20445;-70
2023/02/26 12:41:08;;;;;;;2.47;1.63;;;5.30;70.40;;;;;;5014921;28;20523;-70
2023/02/26 12:43:45;;;;;;;1.93;1.30;;;5.10;77.10;;;;;;5015527;28;20441;-70
2023/02/26 12:46:26;;;;;;;2.80;0.93;;;5.00;77.90;;;;;;5014805;28;20492;-70
2023/02/26 12:49:11;;;;;;;1.40;1.20;;;4.90;78.80;;;;;;5015439;28;20471;-69
2023/02/26 12:51:53;;;;;;;2.77;1.43;;;4.80;81.10;;;;;;5014894;28;20819;-69
2023/02/26 12:54:36;;;;;;;5.00;1.50;;;4.60;86.30;;;;;;5015194;28;20492;-70
2023/02/26 12:57:20;;;;;;;2.70;1.40;;;4.50;91.00;;;;;;5014996;28;20525;-69
2023/02/26 13:00:05;;;;;;;3.10;1.23;;;5.10;93.60;;;;;;5014982;28;20455;-70
2023/02/26 13:03:07;;;;;;;5.30;2.40;;;6.70;90.40;;;;;;5014638;28;20924;-69
2023/02/26 13:05:57;;;;;;;1.57;1.07;;;7.40;72.50;;;;;;5014926;28;20445;-70
2023/02/26 13:08:32;;;;;;;2.83;1.30;;;6.90;72.90;;;;;;5014228;28;20846;-69
2023/02/26 13:11:13;;;;;;;6.20;1.33;;;6.50;75.40;;;;;;5015021;28;20444;-70
2023/02/26 13:13:56;;;;;;;4.60;1.60;;;6.00;76.90;;;;;;5014945;28;20451;-69
2023/02/26 13:16:39;;;;;;;1.50;1.20;;;5.30;78.50;;;;;;5015002;28;20455;-69